Time;durP1;ratioP1;P1;durP2;ratioP2;P2;SDS_P1;SDS_P2;PMS_P1;PMS_P2;Temp;Humidity;BMP_temperature;BMP_pressure;BME280_temperature;BME280_humidity;BME280_pressure;Samples;Min_cycle;Max_cycle;Signal;HPM_P1;HPM_P2
2022/08/18 00:00:56;;;;;;;9.10;3.30;;;;;;;;;;5072621;28;20523;-47
2022/08/18 00:03:22;;;;;;;5.40;3.20;;;;;;;;;;5072347;28;20154;-45
2022/08/18 00:05:47;;;;;;;6.43;3.42;;;;;;;;;;5071887;28;20024;-44
2022/08/18 00:08:12;;;;;;;5.75;3.17;;;;;;;;;;5072137;28;20027;-44
2022/08/18 00:10:39;;;;;;;5.57;3.60;;;;;;;;;;5072477;28;20357;-45
2022/08/18 00:13:05;;;;;;;6.07;3.60;;;;;;;;;;5072230;28;20051;-44
2022/08/18 00:15:30;;;;;;;6.97;3.05;;;;;;;;;;5071439;28;20032;-44
2022/08/18 00:17:55;;;;;;;10.60;3.83;;;;;;;;;;5071508;28;20471;-44
2022/08/18 00:20:22;;;;;;;6.32;3.17;;;;;;;;;;5072133;28;20047;-43
2022/08/18 00:22:48;;;;;;;10.52;3.95;;;;;;;;;;5071859;28;20027;-44
2022/08/18 00:25:15;;;;;;;7.32;3.20;;;;;;;;;;5071323;28;20032;-47
2022/08/18 00:27:40;;;;;;;5.55;3.17;;;;;;;;;;5070880;28;20023;-44
2022/08/18 00:30:07;;;;;;;11.10;3.80;;;;;;;;;;5069985;28;20020;-45
2022/08/18 00:32:34;;;;;;;7.55;3.30;;;;;;;;;;5072471;28;20067;-44
2022/08/18 00:35:07;;;;;;;5.55;3.25;;;;;;;;;;5071294;28;20020;-44
2022/08/18 00:37:33;;;;;;;8.20;4.00;;;;;;;;;;5071126;28;20041;-44
2022/08/18 00:39:58;;;;;;;14.07;3.80;;;;;;;;;;5069572;28;20031;-46
2022/08/18 00:42:25;;;;;;;5.65;3.75;;;;;;;;;;5070636;28;20039;-44
2022/08/18 00:44:51;;;;;;;4.97;3.55;;;;;;;;;;5070829;28;20451;-44
2022/08/18 00:47:16;;;;;;;6.10;3.45;;;;;;;;;;5071459;28;20029;-46
2022/08/18 00:49:43;;;;;;;5.88;3.65;;;;;;;;;;5071456;28;20013;-44
2022/08/18 00:52:10;;;;;;;8.98;3.40;;;;;;;;;;5070329;28;20570;-44
2022/08/18 00:54:36;;;;;;;11.18;4.10;;;;;;;;;;5069611;28;20017;-46
2022/08/18 00:57:05;;;;;;;16.73;4.05;;;;;;;;;;5069177;28;20024;-44
2022/08/18 00:59:41;;;;;;;4.80;3.47;;;;;;;;;;5071460;28;20458;-43
2022/08/18 01:02:11;;;;;;;4.25;3.08;;;;;;;;;;5071496;28;20020;-44
2022/08/18 01:04:56;;;;;;;7.35;3.75;;;;;;;;;;5070632;28;20154;-44
2022/08/18 01:07:28;;;;;;;14.48;4.07;;;;;;;;;;5068406;28;20029;-43
2022/08/18 01:09:54;;;;;;;7.47;3.55;;;;;;;;;;5070121;28;20602;-44
2022/08/18 01:12:19;;;;;;;5.68;3.42;;;;;;;;;;5071369;28;20112;-44
2022/08/18 01:14:45;;;;;;;8.20;4.17;;;;;;;;;;5070951;28;20021;-44
2022/08/18 01:22:48;;;;;;;6.75;4.05;;;;;;;;;;5071111;28;20047;-45
2022/08/18 01:28:01;;;;;;;5.47;4.15;;;;;;;;;;5070785;28;20079;-44
2022/08/18 01:30:26;;;;;;;7.30;4.00;;;;;;;;;;5071209;28;20070;-43
2022/08/18 01:32:52;;;;;;;4.93;3.90;;;;;;;;;;5069807;28;20466;-44
2022/08/18 01:35:19;;;;;;;7.82;4.45;;;;;;;;;;5068613;28;20017;-46
2022/08/18 01:37:44;;;;;;;8.18;4.28;;;;;;;;;;5069485;28;20032;-44
2022/08/18 01:40:10;;;;;;;13.30;5.00;;;;;;;;;;5071025;28;20062;-44
2022/08/18 01:42:36;;;;;;;4.90;3.55;;;;;;;;;;5070620;28;20976;-47
2022/08/18 01:45:04;;;;;;;7.03;3.95;;;;;;;;;;5068704;28;20031;-46
2022/08/18 01:47:31;;;;;;;5.38;3.42;;;;;;;;;;5068696;28;20478;-45
2022/08/18 01:49:57;;;;;;;8.57;4.50;;;;;;;;;;5069338;28;20039;-48
2022/08/18 01:52:23;;;;;;;8.38;4.43;;;;;;;;;;5069064;28;20464;-44
2022/08/18 01:54:49;;;;;;;7.43;4.18;;;;;;;;;;5070629;28;20017;-44
2022/08/18 01:57:15;;;;;;;5.95;4.13;;;;;;;;;;5069619;28;20036;-43
2022/08/18 01:59:41;;;;;;;9.90;4.45;;;;;;;;;;5070484;28;20024;-47
2022/08/18 02:02:06;;;;;;;12.38;4.75;;;;;;;;;;5070853;28;20406;-44
2022/08/18 02:04:33;;;;;;;6.05;4.10;;;;;;;;;;5069072;28;20012;-44
2022/08/18 02:06:58;;;;;;;6.53;4.40;;;;;;;;;;5070121;28;20012;-46
2022/08/18 02:09:23;;;;;;;9.35;4.10;;;;;;;;;;5070301;28;20062;-44
2022/08/18 02:11:49;;;;;;;9.32;5.10;;;;;;;;;;5069119;28;20544;-45
2022/08/18 02:14:14;;;;;;;4.88;3.92;;;;;;;;;;5070143;28;20023;-44
2022/08/18 02:16:39;;;;;;;7.18;4.50;;;;;;;;;;5069733;28;20485;-47
2022/08/18 02:19:05;;;;;;;9.65;4.60;;;;;;;;;;5069964;28;20016;-44
2022/08/18 02:21:30;;;;;;;5.43;4.18;;;;;;;;;;5069432;28;20024;-43
2022/08/18 02:23:55;;;;;;;7.30;4.80;;;;;;;;;;5069107;28;20174;-44
2022/08/18 02:26:22;;;;;;;6.85;4.70;;;;;;;;;;5070108;28;20448;-45
2022/08/18 02:28:47;;;;;;;5.78;4.35;;;;;;;;;;5069697;28;20031;-47
2022/08/18 02:31:14;;;;;;;6.20;4.50;;;;;;;;;;5070518;28;20021;-44
2022/08/18 02:33:40;;;;;;;15.80;4.63;;;;;;;;;;5069852;28;20031;-44
2022/08/18 02:36:06;;;;;;;6.78;4.63;;;;;;;;;;5069665;28;20024;-45
2022/08/18 02:38:31;;;;;;;7.20;4.72;;;;;;;;;;5068458;28;20147;-44
2022/08/18 02:40:58;;;;;;;9.25;5.20;;;;;;;;;;5068948;28;20021;-43
2022/08/18 02:43:24;;;;;;;6.13;5.15;;;;;;;;;;5068135;28;20602;-44
2022/08/18 02:45:49;;;;;;;5.25;4.40;;;;;;;;;;5069970;28;20027;-45
2022/08/18 02:48:15;;;;;;;6.70;4.57;;;;;;;;;;5070198;28;20424;-43
2022/08/18 02:50:46;;;;;;;8.38;4.18;;;;;;;;;;5068427;28;20032;-45
2022/08/18 02:53:19;;;;;;;5.65;4.25;;;;;;;;;;5070711;28;20094;-45
2022/08/18 02:55:45;;;;;;;6.18;4.68;;;;;;;;;;5071529;28;20116;-45
2022/08/18 02:58:12;;;;;;;9.35;4.60;;;;;;;;;;5072868;28;20119;-44
2022/08/18 03:00:37;;;;;;;8.05;5.85;;;;;;;;;;5074126;28;20020;-43
2022/08/18 03:03:03;;;;;;;16.02;6.13;;;;;;;;;;5073362;28;20372;-44
2022/08/18 03:05:29;;;;;;;9.18;5.07;;;;;;;;;;5071676;28;20021;-45
2022/08/18 03:07:54;;;;;;;8.98;5.45;;;;;;;;;;5072865;28;20097;-43
2022/08/18 03:10:19;;;;;;;8.25;4.97;;;;;;;;;;5073353;28;20472;-45
2022/08/18 03:12:45;;;;;;;8.32;5.28;;;;;;;;;;5072104;28;20040;-43
2022/08/18 03:15:11;;;;;;;10.40;5.85;;;;;;;;;;5072655;28;20032;-45
2022/08/18 03:17:37;;;;;;;11.73;6.15;;;;;;;;;;5073000;28;20031;-43
2022/08/18 03:20:03;;;;;;;14.00;5.68;;;;;;;;;;5071646;28;20017;-43
2022/08/18 03:22:28;;;;;;;12.18;5.22;;;;;;;;;;5073392;28;20028;-47
2022/08/18 03:24:54;;;;;;;10.23;5.67;;;;;;;;;;5072907;28;20332;-45
2022/08/18 03:27:19;;;;;;;7.68;5.65;;;;;;;;;;5071018;28;20357;-44
2022/08/18 03:29:44;;;;;;;12.40;5.60;;;;;;;;;;5072875;28;20013;-44
2022/08/18 03:32:09;;;;;;;13.03;6.30;;;;;;;;;;5073660;28;20444;-43
2022/08/18 03:34:35;;;;;;;9.02;6.22;;;;;;;;;;5072594;28;20260;-43
2022/08/18 03:37:00;;;;;;;15.45;6.47;;;;;;;;;;5071032;28;20036;-45
2022/08/18 03:39:26;;;;;;;12.38;5.20;;;;;;;;;;5071583;28;20019;-44
2022/08/18 03:41:56;;;;;;;19.55;7.32;;;;;;;;;;5071065;28;20024;-44
2022/08/18 03:44:22;;;;;;;22.35;6.07;;;;;;;;;;5072278;28;20017;-45
2022/08/18 03:46:49;;;;;;;21.52;6.03;;;;;;;;;;5072398;28;20102;-44
2022/08/18 03:49:15;;;;;;;11.50;6.10;;;;;;;;;;5072789;28;20016;-43
2022/08/18 03:51:45;;;;;;;13.13;6.10;;;;;;;;;;5071851;28;20031;-45
2022/08/18 03:54:12;;;;;;;15.93;6.57;;;;;;;;;;5072678;28;20412;-43
2022/08/18 03:56:38;;;;;;;17.25;5.78;;;;;;;;;;5072186;28;20039;-44
2022/08/18 03:59:06;;;;;;;15.80;5.40;;;;;;;;;;5070834;28;20021;-43
2022/08/18 04:01:33;;;;;;;13.52;5.90;;;;;;;;;;5071159;28;20115;-44
2022/08/18 04:04:01;;;;;;;15.38;5.70;;;;;;;;;;5071960;28;20028;-45
2022/08/18 04:06:31;;;;;;;9.80;5.57;;;;;;;;;;5071071;28;20020;-44
2022/08/18 04:08:57;;;;;;;10.45;5.70;;;;;;;;;;5072171;28;20029;-43
2022/08/18 04:11:24;;;;;;;8.95;4.85;;;;;;;;;;5072265;28;20380;-43
2022/08/18 04:13:49;;;;;;;13.68;5.32;;;;;;;;;;5071957;28;20107;-44
2022/08/18 04:16:15;;;;;;;11.55;5.78;;;;;;;;;;5071769;28;20031;-44
2022/08/18 04:18:40;;;;;;;10.02;5.85;;;;;;;;;;5070428;28;20023;-44
2022/08/18 04:21:07;;;;;;;9.75;5.68;;;;;;;;;;5070695;28;20029;-43
2022/08/18 04:23:36;;;;;;;17.17;7.13;;;;;;;;;;5070243;28;20577;-44
2022/08/18 04:26:01;;;;;;;37.35;8.48;;;;;;;;;;5072029;28;20060;-44
2022/08/18 04:28:27;;;;;;;11.20;6.03;;;;;;;;;;5071920;28;20487;-43
2022/08/18 04:30:53;;;;;;;9.88;6.40;;;;;;;;;;5071913;28;20104;-46
2022/08/18 04:33:19;;;;;;;9.55;5.68;;;;;;;;;;5072029;28;20095;-46
2022/08/18 04:35:45;;;;;;;11.98;5.72;;;;;;;;;;5071368;28;20379;-43
2022/08/18 04:38:11;;;;;;;10.68;7.05;;;;;;;;;;5071532;28;20039;-48
2022/08/18 04:40:36;;;;;;;7.03;5.50;;;;;;;;;;5070605;28;20016;-44
2022/08/18 04:43:01;;;;;;;10.45;5.80;;;;;;;;;;5071623;28;20084;-44
2022/08/18 04:45:27;;;;;;;10.07;5.55;;;;;;;;;;5071124;28;20099;-45
2022/08/18 04:47:52;;;;;;;9.20;5.35;;;;;;;;;;5071360;28;20019;-44
2022/08/18 04:50:18;;;;;;;10.52;6.88;;;;;;;;;;5071920;28;20072;-44
2022/08/18 04:55:28;;;;;;;10.85;7.90;;;;;;;;;;5070855;28;20086;-44
2022/08/18 04:57:53;;;;;;;14.93;9.07;;;;;;;;;;5071160;28;20049;-44
2022/08/18 05:00:18;;;;;;;12.98;8.05;;;;;;;;;;5071277;28;20483;-44
2022/08/18 05:02:44;;;;;;;15.63;8.57;;;;;;;;;;5069881;28;20063;-43
2022/08/18 05:05:09;;;;;;;18.08;10.13;;;;;;;;;;5069325;28;20437;-44
2022/08/18 05:07:35;;;;;;;14.23;9.98;;;;;;;;;;5070644;28;20013;-44
2022/08/18 05:10:00;;;;;;;13.10;9.05;;;;;;;;;;5070024;28;20025;-47
2022/08/18 05:12:25;;;;;;;20.23;11.00;;;;;;;;;;5069727;28;20052;-43
2022/08/18 05:14:52;;;;;;;21.90;11.33;;;;;;;;;;5070472;28;20365;-46
2022/08/18 05:17:17;;;;;;;21.52;11.30;;;;;;;;;;5069164;28;20296;-45
2022/08/18 05:19:43;;;;;;;16.65;9.43;;;;;;;;;;5071096;28;20021;-46
2022/08/18 05:22:08;;;;;;;14.83;10.70;;;;;;;;;;5071161;28;20023;-46
2022/08/18 05:24:34;;;;;;;17.02;10.18;;;;;;;;;;5070278;28;20237;-44
2022/08/18 05:27:00;;;;;;;16.80;10.30;;;;;;;;;;5070446;28;20016;-44
2022/08/18 05:29:25;;;;;;;16.92;9.38;;;;;;;;;;5070258;28;20028;-45
2022/08/18 05:31:52;;;;;;;21.98;10.88;;;;;;;;;;5069614;28;20460;-47
2022/08/18 05:34:19;;;;;;;18.30;10.15;;;;;;;;;;5070893;28;20027;-43
2022/08/18 05:36:47;;;;;;;25.58;10.75;;;;;;;;;;5069378;28;20036;-45
2022/08/18 05:39:36;;;;;;;14.65;10.15;;;;;;;;;;5069255;28;20404;-44
2022/08/18 05:42:23;;;;;;;13.48;8.73;;;;;;;;;;5070136;28;20365;-44
2022/08/18 05:44:49;;;;;;;15.55;9.35;;;;;;;;;;5070181;28;20020;-47
2022/08/18 05:47:26;;;;;;;23.08;10.50;;;;;;;;;;5070054;28;20019;-46
2022/08/18 05:49:53;;;;;;;14.90;8.35;;;;;;;;;;5070734;28;20036;-45
2022/08/18 05:52:27;;;;;;;22.50;9.50;;;;;;;;;;5070996;28;20456;-43
2022/08/18 05:57:57;;;;;;;18.00;9.27;;;;;;;;;;5040229;28;20094;-46
2022/08/18 06:00:23;;;;;;;27.13;10.05;;;;;;;;;;5061602;28;20016;-44
2022/08/18 06:02:51;;;;;;;18.55;10.70;;;;;;;;;;5051372;28;20031;-42
2022/08/18 06:05:24;;;;;;;12.63;8.63;;;;;;;;;;5086515;28;20035;-42
2022/08/18 06:07:52;;;;;;;16.67;8.52;;;;;;;;;;5074725;28;20052;-43
2022/08/18 06:10:18;;;;;;;16.67;8.87;;;;;;;;;;5070091;28;20019;-45
2022/08/18 06:12:50;;;;;;;20.15;9.68;;;;;;;;;;5065576;28;20123;-44
2022/08/18 06:15:23;;;;;;;32.53;10.85;;;;;;;;;;5086324;28;20052;-43
2022/08/18 06:18:07;;;;;;;12.27;8.20;;;;;;;;;;5086309;28;20043;-45
2022/08/18 06:20:32;;;;;;;10.77;7.68;;;;;;;;;;5086574;28;20027;-45
2022/08/18 06:23:04;;;;;;;18.67;8.23;;;;;;;;;;5086632;28;20402;-44
2022/08/18 06:25:36;;;;;;;26.98;8.70;;;;;;;;;;5077108;28;20024;-45
2022/08/18 06:28:06;;;;;;;10.88;8.55;;;;;;;;;;5056312;28;20104;-44
2022/08/18 06:30:40;;;;;;;19.38;9.18;;;;;;;;;;5069714;28;20056;-42
2022/08/18 06:33:14;;;;;;;14.75;8.43;;;;;;;;;;5077037;28;20020;-43
2022/08/18 06:35:50;;;;;;;13.32;8.02;;;;;;;;;;5082428;28;20430;-46
2022/08/18 06:38:38;;;;;;;16.30;8.88;;;;;;;;;;5091781;28;20040;-44
2022/08/18 06:41:08;;;;;;;15.02;8.45;;;;;;;;;;5087648;28;20032;-43
2022/08/18 06:43:36;;;;;;;17.35;9.30;;;;;;;;;;5080620;28;20357;-46
2022/08/18 06:46:04;;;;;;;23.40;9.25;;;;;;;;;;5071746;28;20024;-45
2022/08/18 06:48:37;;;;;;;14.15;7.30;;;;;;;;;;5075246;28;20461;-43
2022/08/18 06:51:03;;;;;;;15.70;8.13;;;;;;;;;;5072682;28;20064;-44
2022/08/18 06:53:46;;;;;;;14.55;7.90;;;;;;;;;;5073391;28;20021;-46
2022/08/18 06:56:19;;;;;;;8.18;6.60;;;;;;;;;;5071711;28;20323;-42
2022/08/18 06:58:44;;;;;;;11.70;7.15;;;;;;;;;;5058460;28;20033;-39
2022/08/18 07:01:10;;;;;;;12.10;6.53;;;;;;;;;;5079268;28;20039;-39
2022/08/18 07:03:35;;;;;;;13.10;6.67;;;;;;;;;;5086081;28;20495;-44
2022/08/18 07:06:02;;;;;;;13.43;6.23;;;;;;;;;;5084471;28;20316;-40
2022/08/18 07:08:33;;;;;;;8.03;6.93;;;;;;;;;;5070572;28;20017;-43
2022/08/18 07:11:21;;;;;;;8.98;6.38;;;;;;;;;;5074714;28;20037;-43
2022/08/18 07:13:50;;;;;;;14.05;7.30;;;;;;;;;;5079225;28;20024;-43
2022/08/18 07:16:22;;;;;;;12.48;6.90;;;;;;;;;;5070890;28;20090;-42
2022/08/18 07:18:48;;;;;;;15.63;6.32;;;;;;;;;;5079380;28;20032;-42
2022/08/18 07:21:32;;;;;;;13.15;6.07;;;;;;;;;;5085804;28;20024;-42
2022/08/18 07:24:03;;;;;;;12.23;6.75;;;;;;;;;;5069107;28;20467;-46
2022/08/18 07:26:28;;;;;;;11.73;7.18;;;;;;;;;;5066225;28;20451;-43
2022/08/18 07:28:54;;;;;;;9.07;5.80;;;;;;;;;;5083750;28;20030;-44
2022/08/18 07:31:37;;;;;;;8.65;5.85;;;;;;;;;;5066795;28;20103;-41
2022/08/18 07:34:07;;;;;;;13.18;6.78;;;;;;;;;;5082502;28;20378;-43
2022/08/18 07:36:36;;;;;;;12.02;6.20;;;;;;;;;;5085558;28;20437;-40
2022/08/18 07:39:05;;;;;;;10.23;6.20;;;;;;;;;;5087925;28;20036;-46
2022/08/18 07:41:34;;;;;;;10.73;5.75;;;;;;;;;;5085363;28;20016;-39
2022/08/18 07:44:16;;;;;;;17.35;6.70;;;;;;;;;;5063391;28;20021;-43
2022/08/18 07:46:49;;;;;;;7.13;5.75;;;;;;;;;;5071490;28;20036;-44
2022/08/18 07:49:23;;;;;;;13.00;6.43;;;;;;;;;;5071152;28;20020;-42
2022/08/18 07:52:01;;;;;;;12.77;5.85;;;;;;;;;;5052988;28;20544;-43
2022/08/18 07:54:47;;;;;;;6.88;5.20;;;;;;;;;;5050401;28;20020;-43
2022/08/18 07:57:20;;;;;;;7.97;5.35;;;;;;;;;;5049689;28;20040;-45
2022/08/18 07:59:46;;;;;;;9.23;5.47;;;;;;;;;;5050868;28;20025;-43
2022/08/18 08:02:14;;;;;;;9.65;5.63;;;;;;;;;;5051881;28;20025;-42
2022/08/18 08:04:39;;;;;;;;;;;;;;;;;;5052481;28;20025;-42
2022/08/18 08:07:05;;;;;;;6.03;5.30;;;;;;;;;;5058830;28;19911;-44
2022/08/18 08:09:48;;;;;;;10.85;5.43;;;;;;;;;;5072061;28;20020;-39
2022/08/18 08:12:37;;;;;;;7.97;5.45;;;;;;;;;;5070712;28;20052;-44
2022/08/18 08:15:23;;;;;;;7.00;5.47;;;;;;;;;;5070220;28;20043;-43
2022/08/18 08:17:53;;;;;;;10.10;5.60;;;;;;;;;;5069064;28;20040;-41
2022/08/18 08:20:38;;;;;;;12.88;5.65;;;;;;;;;;5066999;28;20055;-41
2022/08/18 08:23:03;;;;;;;8.10;6.00;;;;;;;;;;5065118;28;20432;-44
2022/08/18 08:25:53;;;;;;;13.23;5.70;;;;;;;;;;5064168;28;20306;-44
2022/08/18 08:28:19;;;;;;;;;;;;;;;;;;5063480;28;20090;-43
2022/08/18 08:30:59;;;;;;;7.18;4.65;;;;;;;;;;5080143;28;19908;-40
2022/08/18 08:33:32;;;;;;;12.30;6.03;;;;;;;;;;5072947;28;20505;-43
2022/08/18 08:36:02;;;;;;;13.70;5.72;;;;;;;;;;5067400;28;20028;-39
2022/08/18 08:38:40;;;;;;;8.38;4.80;;;;;;;;;;5086281;28;20027;-41
2022/08/18 08:41:21;;;;;;;16.13;5.47;;;;;;;;;;5071098;28;20031;-42
2022/08/18 08:44:06;;;;;;;13.57;4.88;;;;;;;;;;5068131;28;20035;-41
2022/08/18 08:46:36;;;;;;;9.90;5.28;;;;;;;;;;5073701;28;20028;-42
2022/08/18 08:49:07;;;;;;;8.60;4.88;;;;;;;;;;5071586;28;20474;-41
2022/08/18 08:51:32;;;;;;;8.65;4.80;;;;;;;;;;5068724;28;20542;-41
2022/08/18 08:54:10;;;;;;;8.50;4.47;;;;;;;;;;5071337;28;20020;-40
2022/08/18 08:56:41;;;;;;;8.13;4.45;;;;;;;;;;5069204;28;20246;-39
2022/08/18 08:59:09;;;;;;;9.27;4.50;;;;;;;;;;5070359;28;20021;-39
2022/08/18 09:01:53;;;;;;;5.27;4.30;;;;;;;;;;5079976;28;20414;-42
2022/08/18 09:04:18;;;;;;;22.40;5.47;;;;;;;;;;5068916;28;20797;-43
2022/08/18 09:06:52;;;;;;;15.87;6.37;;;;;;;;;;5067954;28;20091;-38
2022/08/18 09:09:20;;;;;;;10.48;4.38;;;;;;;;;;5068140;28;20028;-38
2022/08/18 09:11:55;;;;;;;8.10;4.00;;;;;;;;;;5087334;28;20048;-42
2022/08/18 09:14:39;;;;;;;13.43;4.45;;;;;;;;;;5081344;28;20037;-43
2022/08/18 09:17:16;;;;;;;8.00;4.20;;;;;;;;;;5068870;28;20028;-40
2022/08/18 09:20:09;;;;;;;13.68;4.75;;;;;;;;;;5070412;28;20497;-38
2022/08/18 09:22:41;;;;;;;7.65;3.78;;;;;;;;;;5069928;28;20057;-40
2022/08/18 09:25:26;;;;;;;7.72;3.75;;;;;;;;;;5065006;28;20062;-39
2022/08/18 09:28:05;;;;;;;9.20;4.20;;;;;;;;;;5067914;28;20050;-41
2022/08/18 09:30:30;;;;;;;;;;;;;;;;;;5069941;28;20019;-40
2022/08/18 09:33:01;;;;;;;9.63;3.72;;;;;;;;;;5070745;28;19904;-41
2022/08/18 09:35:41;;;;;;;6.68;3.67;;;;;;;;;;5069089;28;20765;-39
2022/08/18 09:44:08;;;;;;;7.88;3.28;;;;;;;;;;5070446;28;20035;-44
2022/08/18 09:46:40;;;;;;;12.65;3.75;;;;;;;;;;5070154;28;20357;-43
2022/08/18 09:49:26;;;;;;;12.60;3.30;;;;;;;;;;5070760;28;20141;-45
2022/08/18 09:51:59;;;;;;;5.38;3.20;;;;;;;;;;5070652;28;20028;-39
2022/08/18 09:54:29;;;;;;;9.65;3.30;;;;;;;;;;5070436;28;20024;-39
2022/08/18 09:57:16;;;;;;;5.85;3.22;;;;;;;;;;5070050;28;20033;-41
2022/08/18 09:59:44;;;;;;;17.38;4.93;;;;;;;;;;5070242;28;20115;-43
2022/08/18 10:02:34;;;;;;;6.38;3.28;;;;;;;;;;5069403;28;20357;-39
2022/08/18 10:05:18;;;;;;;5.63;3.00;;;;;;;;;;5063199;28;20085;-42
2022/08/18 10:07:47;;;;;;;3.85;2.85;;;;;;;;;;5074120;28;20024;-43
2022/08/18 10:10:25;;;;;;;5.68;3.13;;;;;;;;;;5073182;28;20123;-43
2022/08/18 10:12:50;;;;;;;6.30;2.70;;;;;;;;;;5072827;28;20053;-41
2022/08/18 10:15:24;;;;;;;5.83;3.10;;;;;;;;;;5073832;28;20507;-41
2022/08/18 10:17:50;;;;;;;3.45;2.70;;;;;;;;;;5072414;28;20044;-42
2022/08/18 10:20:21;;;;;;;8.50;3.55;;;;;;;;;;5070669;28;20500;-41
2022/08/18 10:22:47;;;;;;;7.40;3.22;;;;;;;;;;5072701;28;20016;-44
2022/08/18 10:25:29;;;;;;;9.73;3.20;;;;;;;;;;5073296;28;20016;-41
2022/08/18 10:27:55;;;;;;;5.28;3.03;;;;;;;;;;5073879;28;20021;-43
2022/08/18 10:30:26;;;;;;;7.95;3.08;;;;;;;;;;5072488;28;20085;-46
2022/08/18 10:32:52;;;;;;;5.35;3.33;;;;;;;;;;5074008;28;20040;-39
2022/08/18 10:35:35;;;;;;;3.90;3.07;;;;;;;;;;5071343;28;20016;-41
2022/08/18 10:38:04;;;;;;;14.85;3.30;;;;;;;;;;5071165;28;20024;-43
2022/08/18 10:40:30;;;;;;;4.40;2.75;;;;;;;;;;5073799;28;20084;-42
2022/08/18 10:43:16;;;;;;;8.40;3.05;;;;;;;;;;5089692;28;20020;-43
2022/08/18 10:45:49;;;;;;;5.40;3.40;;;;;;;;;;5080497;28;20024;-41
2022/08/18 10:48:15;;;;;;;4.95;2.90;;;;;;;;;;5073752;28;20406;-40
2022/08/18 10:50:42;;;;;;;7.97;3.13;;;;;;;;;;5072484;28;20016;-39
2022/08/18 10:53:15;;;;;;;10.67;3.73;;;;;;;;;;5080626;28;20543;-45
2022/08/18 10:55:47;;;;;;;10.55;3.20;;;;;;;;;;5074070;28;20024;-43
2022/08/18 10:58:19;;;;;;;5.85;3.28;;;;;;;;;;5093179;28;20084;-43
2022/08/18 11:01:00;;;;;;;6.03;3.55;;;;;;;;;;5085150;28;20236;-44
2022/08/18 11:03:39;;;;;;;6.40;3.35;;;;;;;;;;5077414;28;20089;-40
2022/08/18 11:06:07;;;;;;;10.55;3.33;;;;;;;;;;5081947;28;20061;-44
2022/08/18 11:08:35;;;;;;;7.72;3.08;;;;;;;;;;5072157;28;20025;-42
2022/08/18 11:11:08;;;;;;;4.63;2.40;;;;;;;;;;5075986;28;20024;-44
2022/08/18 11:13:36;;;;;;;5.88;2.72;;;;;;;;;;5073469;28;20035;-43
2022/08/18 11:16:09;;;;;;;6.88;3.22;;;;;;;;;;5087660;28;20028;-43
2022/08/18 11:18:34;;;;;;;4.40;3.25;;;;;;;;;;5071147;28;20045;-40
2022/08/18 11:21:18;;;;;;;6.97;3.07;;;;;;;;;;5082908;28;20503;-42
2022/08/18 11:23:43;;;;;;;4.50;2.80;;;;;;;;;;5081394;28;20359;-41
2022/08/18 11:26:12;;;;;;;3.17;2.43;;;;;;;;;;5092781;28;20024;-42
2022/08/18 11:28:38;;;;;;;6.90;2.55;;;;;;;;;;5076026;28;20027;-45
2022/08/18 11:31:03;;;;;;;5.72;2.40;;;;;;;;;;5091278;28;20020;-41
2022/08/18 11:33:29;;;;;;;6.80;2.78;;;;;;;;;;5084967;28;20495;-43
2022/08/18 11:35:59;;;;;;;5.55;3.22;;;;;;;;;;5091074;28;20017;-41
2022/08/18 11:38:27;;;;;;;4.45;2.70;;;;;;;;;;5074888;28;20483;-41
2022/08/18 11:41:12;;;;;;;4.80;2.57;;;;;;;;;;5082614;28;20056;-43
2022/08/18 11:43:39;;;;;;;6.50;2.42;;;;;;;;;;5076332;28;20017;-43
2022/08/18 11:46:19;;;;;;;5.35;2.50;;;;;;;;;;5079978;28;20024;-43
2022/08/18 11:48:47;;;;;;;4.22;2.38;;;;;;;;;;5067513;28;20365;-44
2022/08/18 11:51:16;;;;;;;7.10;2.53;;;;;;;;;;5071392;28;20484;-44
2022/08/18 11:53:47;;;;;;;5.93;2.40;;;;;;;;;;5076228;28;20586;-43
2022/08/18 11:56:12;;;;;;;4.18;2.70;;;;;;;;;;5092024;28;20065;-41
2022/08/18 11:58:45;;;;;;;4.50;2.83;;;;;;;;;;5090864;28;20036;-40
2022/08/18 12:01:30;;;;;;;8.93;2.67;;;;;;;;;;5089706;28;20020;-43
2022/08/18 12:03:57;;;;;;;9.05;2.92;;;;;;;;;;5058334;28;20476;-44
2022/08/18 12:06:30;;;;;;;7.32;2.70;;;;;;;;;;5063466;28;20073;-41
2022/08/18 12:08:58;;;;;;;6.90;3.35;;;;;;;;;;5073784;28;20399;-42
2022/08/18 12:11:30;;;;;;;3.05;2.40;;;;;;;;;;5069902;28;20056;-44
2022/08/18 12:14:20;;;;;;;8.95;3.25;;;;;;;;;;5070259;28;20020;-43
2022/08/18 12:16:45;;;;;;;10.82;2.78;;;;;;;;;;5065149;28;20036;-45
2022/08/18 12:19:12;;;;;;;4.00;2.28;;;;;;;;;;5089022;28;20471;-42
2022/08/18 12:21:41;;;;;;;8.55;2.80;;;;;;;;;;5076382;28;20276;-39
2022/08/18 12:24:12;;;;;;;8.68;2.47;;;;;;;;;;5075017;28;20028;-40
2022/08/18 12:26:37;;;;;;;4.65;1.90;;;;;;;;;;5072034;28;20130;-42
2022/08/18 12:29:02;;;;;;;7.90;2.10;;;;;;;;;;5085408;28;20487;-43
2022/08/18 12:31:28;;;;;;;3.97;2.33;;;;;;;;;;5071134;28;20279;-43
2022/08/18 12:33:53;;;;;;;5.43;2.33;;;;;;;;;;5071082;28;20071;-38
2022/08/18 12:36:18;;;;;;;4.77;2.30;;;;;;;;;;5084029;28;20022;-41
2022/08/18 12:38:44;;;;;;;6.67;2.40;;;;;;;;;;5086244;28;20028;-43
2022/08/18 12:41:10;;;;;;;6.30;2.50;;;;;;;;;;5087293;28;20052;-46
2022/08/18 12:43:36;;;;;;;5.70;2.45;;;;;;;;;;5082078;28;20031;-42
2022/08/18 12:46:02;;;;;;;9.50;3.17;;;;;;;;;;5079245;28;20375;-42
2022/08/18 12:48:29;;;;;;;8.50;2.67;;;;;;;;;;5090277;28;20065;-43
2022/08/18 12:50:54;;;;;;;8.73;2.90;;;;;;;;;;5072568;28;20089;-38
2022/08/18 12:53:19;;;;;;;7.37;2.53;;;;;;;;;;5089949;28;20455;-43
2022/08/18 12:55:45;;;;;;;4.00;2.50;;;;;;;;;;5077110;28;20660;-43
2022/08/18 12:58:10;;;;;;;7.93;2.80;;;;;;;;;;5069519;28;20323;-42
2022/08/18 13:00:38;;;;;;;4.72;2.60;;;;;;;;;;5066099;28;20149;-45
2022/08/18 13:03:03;;;;;;;5.03;2.60;;;;;;;;;;5067938;28;20025;-44
2022/08/18 13:05:29;;;;;;;7.22;2.90;;;;;;;;;;5063889;28;20472;-44
2022/08/18 13:07:59;;;;;;;8.25;3.17;;;;;;;;;;5069472;28;20021;-43
2022/08/18 13:10:24;;;;;;;9.40;2.30;;;;;;;;;;5069801;28;20099;-41
2022/08/18 13:12:49;;;;;;;4.00;2.15;;;;;;;;;;5069529;28;20682;-44
2022/08/18 13:15:15;;;;;;;3.80;2.13;;;;;;;;;;5077682;28;20059;-43
2022/08/18 13:17:40;;;;;;;8.30;2.83;;;;;;;;;;5068280;28;20300;-42
2022/08/18 13:20:12;;;;;;;3.47;2.27;;;;;;;;;;5068875;28;20359;-42
2022/08/18 13:22:39;;;;;;;7.30;2.53;;;;;;;;;;5067951;28;20029;-44
2022/08/18 13:25:06;;;;;;;7.72;2.78;;;;;;;;;;5066719;28;20100;-42
2022/08/18 13:27:31;;;;;;;25.27;3.53;;;;;;;;;;5069426;28;20059;-45
2022/08/18 13:29:57;;;;;;;8.57;2.92;;;;;;;;;;5067940;28;20056;-41
2022/08/18 13:32:24;;;;;;;5.20;2.50;;;;;;;;;;5068515;28;20021;-40
2022/08/18 13:34:50;;;;;;;7.97;2.15;;;;;;;;;;5077191;28;20034;-41
2022/08/18 13:37:15;;;;;;;16.80;4.90;;;;;;;;;;5069713;28;20483;-42
2022/08/18 13:39:40;;;;;;;8.57;2.50;;;;;;;;;;5067675;28;20327;-41
2022/08/18 13:42:06;;;;;;;8.00;2.50;;;;;;;;;;5067631;28;20115;-46
2022/08/18 13:44:31;;;;;;;8.02;2.17;;;;;;;;;;5066901;28;20284;-44
2022/08/18 13:46:56;;;;;;;4.40;2.30;;;;;;;;;;5077098;28;20025;-43
2022/08/18 13:49:23;;;;;;;8.20;3.03;;;;;;;;;;5068427;28;20265;-45
2022/08/18 13:51:49;;;;;;;6.55;2.50;;;;;;;;;;5070508;28;20017;-42
2022/08/18 13:54:25;;;;;;;5.75;2.50;;;;;;;;;;5070697;28;20055;-45
2022/08/18 13:56:50;;;;;;;5.90;2.33;;;;;;;;;;5085910;28;20477;-44
2022/08/18 13:59:16;;;;;;;6.07;2.42;;;;;;;;;;5075695;28;20009;-46
2022/08/18 14:01:42;;;;;;;6.30;2.20;;;;;;;;;;5078877;28;20020;-43
2022/08/18 14:04:08;;;;;;;9.30;2.97;;;;;;;;;;5082429;28;20475;-44
2022/08/18 14:06:33;;;;;;;9.88;2.55;;;;;;;;;;5084689;28;20027;-43
2022/08/18 14:08:58;;;;;;;7.75;2.88;;;;;;;;;;5073736;28;20013;-47
2022/08/18 14:11:26;;;;;;;5.63;2.40;;;;;;;;;;5067758;28;20057;-44
2022/08/18 14:13:51;;;;;;;7.55;2.53;;;;;;;;;;5070028;28;20264;-44
2022/08/18 14:16:17;;;;;;;7.43;2.30;;;;;;;;;;5069074;28;20127;-43
2022/08/18 14:18:43;;;;;;;11.25;2.80;;;;;;;;;;5068076;28;20028;-44
2022/08/18 14:26:48;;;;;;;5.25;2.47;;;;;;;;;;5075393;28;20120;-43
2022/08/18 14:29:14;;;;;;;6.32;2.38;;;;;;;;;;5068085;28;20017;-44
2022/08/18 14:31:40;;;;;;;11.77;3.53;;;;;;;;;;5069150;28;20032;-42
2022/08/18 14:34:05;;;;;;;4.93;1.85;;;;;;;;;;5069463;28;20561;-44
2022/08/18 14:36:31;;;;;;;12.70;2.80;;;;;;;;;;5068479;28;20116;-43
2022/08/18 14:38:57;;;;;;;5.17;2.50;;;;;;;;;;5067282;28;20037;-44
2022/08/18 14:41:22;;;;;;;8.60;2.25;;;;;;;;;;5068314;28;20016;-45
2022/08/18 14:43:47;;;;;;;6.63;2.50;;;;;;;;;;5068436;28;20031;-44
2022/08/18 14:46:13;;;;;;;6.40;2.30;;;;;;;;;;5068411;28;20597;-42
2022/08/18 14:48:39;;;;;;;4.30;2.00;;;;;;;;;;5069872;28;20035;-45
2022/08/18 14:51:05;;;;;;;5.82;2.30;;;;;;;;;;5073121;28;20663;-40
2022/08/18 14:53:33;;;;;;;8.07;2.97;;;;;;;;;;5071750;28;20012;-43
2022/08/18 14:55:59;;;;;;;8.63;2.92;;;;;;;;;;5071434;28;20096;-43
2022/08/18 14:58:27;;;;;;;7.57;2.17;;;;;;;;;;5070695;28;20189;-45
2022/08/18 15:00:57;;;;;;;9.32;2.72;;;;;;;;;;5070526;28;20025;-45
2022/08/18 15:03:23;;;;;;;11.90;3.03;;;;;;;;;;5070820;28;20473;-47
2022/08/18 15:05:48;;;;;;;6.82;2.97;;;;;;;;;;5070960;28;20039;-42
2022/08/18 15:08:14;;;;;;;11.13;3.10;;;;;;;;;;5071881;28;20028;-45
2022/08/18 15:10:40;;;;;;;9.55;2.78;;;;;;;;;;5073027;28;20444;-43
2022/08/18 15:13:06;;;;;;;11.07;2.92;;;;;;;;;;5071653;28;20139;-41
2022/08/18 15:15:32;;;;;;;11.15;2.50;;;;;;;;;;5073056;28;20513;-45